sensor_id;sensor_type;location;lat;lon;timestamp;P1;durP1;ratioP1;P2;durP2;ratioP2
22679;SDS011;11507;44.858;10.374;2023-05-07T00:00:27;28.00;;;20.80;;
22679;SDS011;11507;44.858;10.374;2023-05-07T00:02:53;22.75;;;17.15;;
22679;SDS011;11507;44.858;10.374;2023-05-07T00:05:20;20.50;;;15.30;;
22679;SDS011;11507;44.858;10.374;2023-05-07T00:07:46;22.55;;;16.20;;
22679;SDS011;11507;44.858;10.374;2023-05-07T00:10:12;21.85;;;15.45;;
22679;SDS011;11507;44.858;10.374;2023-05-07T00:12:38;23.45;;;15.80;;
22679;SDS011;11507;44.858;10.374;2023-05-07T00:15:04;19.10;;;14.25;;
22679;SDS011;11507;44.858;10.374;2023-05-07T00:17:32;18.55;;;14.50;;
22679;SDS011;11507;44.858;10.374;2023-05-07T00:19:59;18.42;;;13.73;;
22679;SDS011;11507;44.858;10.374;2023-05-07T00:22:26;20.42;;;15.20;;
22679;SDS011;11507;44.858;10.374;2023-05-07T00:24:52;20.30;;;13.88;;
22679;SDS011;11507;44.858;10.374;2023-05-07T00:29:46;18.42;;;13.85;;
22679;SDS011;11507;44.858;10.374;2023-05-07T00:32:12;20.05;;;13.70;;
22679;SDS011;11507;44.858;10.374;2023-05-07T00:34:38;17.73;;;13.75;;
22679;SDS011;11507;44.858;10.374;2023-05-07T00:37:04;19.65;;;14.57;;
22679;SDS011;11507;44.858;10.374;2023-05-07T00:39:32;23.63;;;16.65;;
22679;SDS011;11507;44.858;10.374;2023-05-07T00:41:59;20.45;;;14.68;;
22679;SDS011;11507;44.858;10.374;2023-05-07T00:44:25;22.50;;;14.45;;
22679;SDS011;11507;44.858;10.374;2023-05-07T00:46:52;20.00;;;14.15;;
22679;SDS011;11507;44.858;10.374;2023-05-07T00:49:19;20.45;;;14.55;;
22679;SDS011;11507;44.858;10.374;2023-05-07T00:51:45;22.95;;;15.10;;
22679;SDS011;11507;44.858;10.374;2023-05-07T00:54:12;23.23;;;15.00;;
22679;SDS011;11507;44.858;10.374;2023-05-07T00:56:40;24.65;;;17.60;;
22679;SDS011;11507;44.858;10.374;2023-05-07T00:59:07;20.88;;;14.52;;
22679;SDS011;11507;44.858;10.374;2023-05-07T01:01:33;25.38;;;17.52;;
22679;SDS011;11507;44.858;10.374;2023-05-07T01:04:00;22.25;;;16.15;;
22679;SDS011;11507;44.858;10.374;2023-05-07T01:06:26;19.55;;;15.18;;
22679;SDS011;11507;44.858;10.374;2023-05-07T01:08:54;21.40;;;15.82;;
22679;SDS011;11507;44.858;10.374;2023-05-07T01:11:21;28.92;;;18.27;;
22679;SDS011;11507;44.858;10.374;2023-05-07T01:13:48;25.90;;;17.65;;
22679;SDS011;11507;44.858;10.374;2023-05-07T01:16:15;22.73;;;15.93;;
22679;SDS011;11507;44.858;10.374;2023-05-07T01:18:43;29.90;;;21.10;;
22679;SDS011;11507;44.858;10.374;2023-05-07T01:21:12;26.85;;;19.10;;
22679;SDS011;11507;44.858;10.374;2023-05-07T01:23:42;29.25;;;20.23;;
22679;SDS011;11507;44.858;10.374;2023-05-07T01:26:10;28.95;;;20.23;;
22679;SDS011;11507;44.858;10.374;2023-05-07T01:28:36;26.83;;;19.48;;
22679;SDS011;11507;44.858;10.374;2023-05-07T01:31:02;29.00;;;20.65;;
22679;SDS011;11507;44.858;10.374;2023-05-07T01:33:31;31.65;;;24.15;;
22679;SDS011;11507;44.858;10.374;2023-05-07T01:38:31;32.00;;;23.25;;
22679;SDS011;11507;44.858;10.374;2023-05-07T01:40:58;31.77;;;22.70;;
22679;SDS011;11507;44.858;10.374;2023-05-07T01:43:24;30.20;;;21.55;;
22679;SDS011;11507;44.858;10.374;2023-05-07T01:45:50;31.20;;;22.02;;
22679;SDS011;11507;44.858;10.374;2023-05-07T01:48:17;26.13;;;18.88;;
22679;SDS011;11507;44.858;10.374;2023-05-07T01:50:44;28.73;;;19.10;;
22679;SDS011;11507;44.858;10.374;2023-05-07T01:53:11;24.38;;;16.95;;
22679;SDS011;11507;44.858;10.374;2023-05-07T01:55:37;28.85;;;18.65;;
22679;SDS011;11507;44.858;10.374;2023-05-07T01:58:03;25.63;;;16.50;;
22679;SDS011;11507;44.858;10.374;2023-05-07T02:00:29;22.40;;;16.50;;
22679;SDS011;11507;44.858;10.374;2023-05-07T02:02:57;24.23;;;17.30;;
22679;SDS011;11507;44.858;10.374;2023-05-07T02:05:32;32.03;;;21.63;;
22679;SDS011;11507;44.858;10.374;2023-05-07T02:08:03;28.92;;;17.92;;
22679;SDS011;11507;44.858;10.374;2023-05-07T02:10:30;33.10;;;21.02;;
22679;SDS011;11507;44.858;10.374;2023-05-07T02:12:56;26.85;;;18.02;;
22679;SDS011;11507;44.858;10.374;2023-05-07T02:15:21;27.92;;;17.15;;
22679;SDS011;11507;44.858;10.374;2023-05-07T02:20:43;33.20;;;22.77;;
22679;SDS011;11507;44.858;10.374;2023-05-07T02:23:09;29.00;;;20.17;;
22679;SDS011;11507;44.858;10.374;2023-05-07T02:25:35;29.08;;;20.10;;
22679;SDS011;11507;44.858;10.374;2023-05-07T02:28:01;34.40;;;23.17;;
22679;SDS011;11507;44.858;10.374;2023-05-07T02:30:40;37.78;;;23.83;;
22679;SDS011;11507;44.858;10.374;2023-05-07T02:33:07;33.20;;;22.75;;
22679;SDS011;11507;44.858;10.374;2023-05-07T02:35:33;32.65;;;22.55;;
22679;SDS011;11507;44.858;10.374;2023-05-07T02:38:00;36.67;;;24.45;;
22679;SDS011;11507;44.858;10.374;2023-05-07T02:40:26;46.00;;;28.15;;
22679;SDS011;11507;44.858;10.374;2023-05-07T02:42:52;36.88;;;23.38;;
22679;SDS011;11507;44.858;10.374;2023-05-07T02:45:17;37.97;;;27.70;;
22679;SDS011;11507;44.858;10.374;2023-05-07T02:47:45;34.55;;;24.33;;
22679;SDS011;11507;44.858;10.374;2023-05-07T02:50:17;38.00;;;26.63;;
22679;SDS011;11507;44.858;10.374;2023-05-07T02:52:43;39.50;;;27.17;;
22679;SDS011;11507;44.858;10.374;2023-05-07T02:55:09;37.97;;;26.38;;
22679;SDS011;11507;44.858;10.374;2023-05-07T02:57:35;35.92;;;24.15;;
22679;SDS011;11507;44.858;10.374;2023-05-07T03:00:09;35.00;;;24.67;;
22679;SDS011;11507;44.858;10.374;2023-05-07T03:02:44;35.08;;;24.58;;
22679;SDS011;11507;44.858;10.374;2023-05-07T03:05:11;39.40;;;26.58;;
22679;SDS011;11507;44.858;10.374;2023-05-07T03:07:37;41.58;;;28.45;;
22679;SDS011;11507;44.858;10.374;2023-05-07T03:10:04;35.15;;;24.80;;
22679;SDS011;11507;44.858;10.374;2023-05-07T03:12:30;34.30;;;24.90;;
22679;SDS011;11507;44.858;10.374;2023-05-07T03:14:59;40.38;;;26.67;;
22679;SDS011;11507;44.858;10.374;2023-05-07T03:17:25;37.80;;;25.75;;
22679;SDS011;11507;44.858;10.374;2023-05-07T03:19:53;34.75;;;24.58;;
22679;SDS011;11507;44.858;10.374;2023-05-07T03:22:20;37.85;;;25.00;;
22679;SDS011;11507;44.858;10.374;2023-05-07T03:24:46;32.67;;;23.58;;
22679;SDS011;11507;44.858;10.374;2023-05-07T03:27:13;35.25;;;23.10;;
22679;SDS011;11507;44.858;10.374;2023-05-07T03:29:41;31.08;;;21.75;;
22679;SDS011;11507;44.858;10.374;2023-05-07T03:32:07;35.95;;;25.08;;
22679;SDS011;11507;44.858;10.374;2023-05-07T03:34:34;36.80;;;25.67;;
22679;SDS011;11507;44.858;10.374;2023-05-07T03:37:07;32.88;;;22.67;;
22679;SDS011;11507;44.858;10.374;2023-05-07T03:39:33;34.50;;;22.05;;
22679;SDS011;11507;44.858;10.374;2023-05-07T03:41:59;28.35;;;20.00;;
22679;SDS011;11507;44.858;10.374;2023-05-07T03:44:27;34.17;;;22.17;;
22679;SDS011;11507;44.858;10.374;2023-05-07T03:46:53;28.98;;;20.20;;
22679;SDS011;11507;44.858;10.374;2023-05-07T03:49:20;27.67;;;19.00;;
22679;SDS011;11507;44.858;10.374;2023-05-07T03:51:46;34.30;;;21.10;;
22679;SDS011;11507;44.858;10.374;2023-05-07T03:56:42;29.40;;;19.42;;
22679;SDS011;11507;44.858;10.374;2023-05-07T04:01:34;37.80;;;23.50;;
22679;SDS011;11507;44.858;10.374;2023-05-07T04:04:00;34.97;;;22.73;;
22679;SDS011;11507;44.858;10.374;2023-05-07T04:06:27;33.90;;;23.25;;
22679;SDS011;11507;44.858;10.374;2023-05-07T04:11:20;37.13;;;20.27;;
22679;SDS011;11507;44.858;10.374;2023-05-07T04:13:46;26.50;;;18.42;;
22679;SDS011;11507;44.858;10.374;2023-05-07T04:16:14;26.85;;;18.38;;
22679;SDS011;11507;44.858;10.374;2023-05-07T04:21:13;32.22;;;21.05;;
22679;SDS011;11507;44.858;10.374;2023-05-07T04:23:46;33.30;;;20.50;;
22679;SDS011;11507;44.858;10.374;2023-05-07T04:26:14;33.05;;;21.20;;
22679;SDS011;11507;44.858;10.374;2023-05-07T04:28:43;31.75;;;20.90;;
22679;SDS011;11507;44.858;10.374;2023-05-07T04:31:09;33.20;;;22.67;;
22679;SDS011;11507;44.858;10.374;2023-05-07T04:33:36;28.52;;;20.50;;
22679;SDS011;11507;44.858;10.374;2023-05-07T04:36:03;27.25;;;17.92;;
22679;SDS011;11507;44.858;10.374;2023-05-07T04:38:34;27.77;;;16.58;;
22679;SDS011;11507;44.858;10.374;2023-05-07T04:41:05;22.73;;;16.20;;
22679;SDS011;11507;44.858;10.374;2023-05-07T04:43:35;23.38;;;15.70;;
22679;SDS011;11507;44.858;10.374;2023-05-07T04:46:01;22.27;;;14.98;;
22679;SDS011;11507;44.858;10.374;2023-05-07T04:48:27;20.63;;;13.75;;
22679;SDS011;11507;44.858;10.374;2023-05-07T04:50:54;17.90;;;12.82;;
22679;SDS011;11507;44.858;10.374;2023-05-07T04:53:20;17.17;;;12.45;;
22679;SDS011;11507;44.858;10.374;2023-05-07T04:55:48;18.17;;;12.63;;
22679;SDS011;11507;44.858;10.374;2023-05-07T04:58:14;19.38;;;12.40;;
22679;SDS011;11507;44.858;10.374;2023-05-07T05:00:42;17.70;;;12.02;;
22679;SDS011;11507;44.858;10.374;2023-05-07T05:03:09;20.70;;;12.10;;
22679;SDS011;11507;44.858;10.374;2023-05-07T05:05:37;17.88;;;11.82;;
22679;SDS011;11507;44.858;10.374;2023-05-07T05:08:03;15.85;;;12.30;;
22679;SDS011;11507;44.858;10.374;2023-05-07T05:10:30;18.92;;;12.07;;
22679;SDS011;11507;44.858;10.374;2023-05-07T05:15:26;16.95;;;11.75;;
22679;SDS011;11507;44.858;10.374;2023-05-07T05:17:55;18.05;;;11.88;;
22679;SDS011;11507;44.858;10.374;2023-05-07T05:20:21;18.80;;;12.20;;
22679;SDS011;11507;44.858;10.374;2023-05-07T05:22:48;15.85;;;11.75;;
22679;SDS011;11507;44.858;10.374;2023-05-07T05:25:14;16.90;;;12.43;;
22679;SDS011;11507;44.858;10.374;2023-05-07T05:27:40;17.13;;;11.93;;
22679;SDS011;11507;44.858;10.374;2023-05-07T05:30:14;16.75;;;11.07;;
22679;SDS011;11507;44.858;10.374;2023-05-07T05:32:43;16.17;;;11.02;;
22679;SDS011;11507;44.858;10.374;2023-05-07T05:35:11;16.27;;;10.60;;
22679;SDS011;11507;44.858;10.374;2023-05-07T05:37:39;15.80;;;10.50;;
22679;SDS011;11507;44.858;10.374;2023-05-07T05:40:08;15.52;;;10.30;;
22679;SDS011;11507;44.858;10.374;2023-05-07T05:42:35;15.60;;;10.98;;
22679;SDS011;11507;44.858;10.374;2023-05-07T05:45:02;15.40;;;10.27;;
22679;SDS011;11507;44.858;10.374;2023-05-07T05:47:30;14.73;;;10.25;;
22679;SDS011;11507;44.858;10.374;2023-05-07T05:49:56;12.43;;;9.45;;
22679;SDS011;11507;44.858;10.374;2023-05-07T05:52:22;13.82;;;9.60;;
22679;SDS011;11507;44.858;10.374;2023-05-07T05:54:54;13.07;;;9.80;;
22679;SDS011;11507;44.858;10.374;2023-05-07T05:57:21;13.25;;;9.93;;
22679;SDS011;11507;44.858;10.374;2023-05-07T05:59:49;14.27;;;10.50;;
22679;SDS011;11507;44.858;10.374;2023-05-07T06:02:16;14.35;;;10.38;;
22679;SDS011;11507;44.858;10.374;2023-05-07T06:04:42;16.05;;;12.02;;
22679;SDS011;11507;44.858;10.374;2023-05-07T06:07:12;18.85;;;12.90;;
22679;SDS011;11507;44.858;10.374;2023-05-07T06:09:38;19.38;;;13.27;;
22679;SDS011;11507;44.858;10.374;2023-05-07T06:12:05;22.33;;;15.30;;
22679;SDS011;11507;44.858;10.374;2023-05-07T06:14:32;19.20;;;14.48;;
22679;SDS011;11507;44.858;10.374;2023-05-07T06:16:59;26.77;;;17.23;;
22679;SDS011;11507;44.858;10.374;2023-05-07T06:19:25;25.85;;;18.10;;
22679;SDS011;11507;44.858;10.374;2023-05-07T06:21:54;27.13;;;19.48;;
22679;SDS011;11507;44.858;10.374;2023-05-07T06:24:26;30.83;;;21.58;;
22679;SDS011;11507;44.858;10.374;2023-05-07T06:26:52;30.75;;;22.67;;
22679;SDS011;11507;44.858;10.374;2023-05-07T06:29:18;30.50;;;23.85;;
22679;SDS011;11507;44.858;10.374;2023-05-07T06:31:44;33.50;;;25.13;;
22679;SDS011;11507;44.858;10.374;2023-05-07T06:34:11;30.73;;;23.85;;
22679;SDS011;11507;44.858;10.374;2023-05-07T06:36:41;34.67;;;22.98;;
22679;SDS011;11507;44.858;10.374;2023-05-07T06:39:23;30.02;;;23.52;;
22679;SDS011;11507;44.858;10.374;2023-05-07T06:41:50;33.22;;;24.48;;
22679;SDS011;11507;44.858;10.374;2023-05-07T06:44:24;32.30;;;24.50;;
22679;SDS011;11507;44.858;10.374;2023-05-07T06:47:10;38.08;;;23.90;;
22679;SDS011;11507;44.858;10.374;2023-05-07T06:49:38;35.05;;;24.50;;
22679;SDS011;11507;44.858;10.374;2023-05-07T06:52:04;32.85;;;24.42;;
22679;SDS011;11507;44.858;10.374;2023-05-07T06:54:30;33.97;;;25.58;;
22679;SDS011;11507;44.858;10.374;2023-05-07T06:56:57;34.75;;;25.85;;
22679;SDS011;11507;44.858;10.374;2023-05-07T06:59:25;32.15;;;23.60;;
22679;SDS011;11507;44.858;10.374;2023-05-07T07:01:52;31.42;;;24.38;;
22679;SDS011;11507;44.858;10.374;2023-05-07T07:04:18;33.38;;;24.85;;
22679;SDS011;11507;44.858;10.374;2023-05-07T07:06:49;31.85;;;24.00;;
22679;SDS011;11507;44.858;10.374;2023-05-07T07:09:17;30.63;;;23.40;;
22679;SDS011;11507;44.858;10.374;2023-05-07T07:11:43;32.58;;;24.33;;
22679;SDS011;11507;44.858;10.374;2023-05-07T07:14:09;31.17;;;23.90;;
22679;SDS011;11507;44.858;10.374;2023-05-07T07:16:43;33.33;;;25.05;;
22679;SDS011;11507;44.858;10.374;2023-05-07T07:19:08;35.15;;;23.73;;
22679;SDS011;11507;44.858;10.374;2023-05-07T07:21:35;31.55;;;22.80;;
22679;SDS011;11507;44.858;10.374;2023-05-07T07:24:01;31.42;;;21.98;;
22679;SDS011;11507;44.858;10.374;2023-05-07T07:26:27;29.27;;;22.15;;
22679;SDS011;11507;44.858;10.374;2023-05-07T07:28:53;30.00;;;22.02;;
22679;SDS011;11507;44.858;10.374;2023-05-07T07:31:21;29.50;;;21.83;;
22679;SDS011;11507;44.858;10.374;2023-05-07T07:33:49;27.98;;;21.63;;
22679;SDS011;11507;44.858;10.374;2023-05-07T07:36:15;28.92;;;20.73;;
22679;SDS011;11507;44.858;10.374;2023-05-07T07:38:41;33.60;;;21.10;;
22679;SDS011;11507;44.858;10.374;2023-05-07T07:41:08;28.38;;;21.60;;
22679;SDS011;11507;44.858;10.374;2023-05-07T07:43:35;26.20;;;20.35;;
22679;SDS011;11507;44.858;10.374;2023-05-07T07:46:01;24.85;;;20.75;;
22679;SDS011;11507;44.858;10.374;2023-05-07T07:48:28;26.08;;;19.27;;
22679;SDS011;11507;44.858;10.374;2023-05-07T07:50:57;24.52;;;19.40;;
22679;SDS011;11507;44.858;10.374;2023-05-07T07:53:23;25.70;;;19.30;;
22679;SDS011;11507;44.858;10.374;2023-05-07T07:55:49;30.75;;;21.88;;
22679;SDS011;11507;44.858;10.374;2023-05-07T07:58:18;24.48;;;19.75;;
22679;SDS011;11507;44.858;10.374;2023-05-07T08:00:45;25.85;;;19.15;;
22679;SDS011;11507;44.858;10.374;2023-05-07T08:03:12;27.67;;;19.80;;
22679;SDS011;11507;44.858;10.374;2023-05-07T08:05:43;25.17;;;20.77;;
22679;SDS011;11507;44.858;10.374;2023-05-07T08:08:10;26.08;;;20.85;;
22679;SDS011;11507;44.858;10.374;2023-05-07T08:10:37;28.48;;;21.10;;
22679;SDS011;11507;44.858;10.374;2023-05-07T08:13:10;26.70;;;19.88;;
22679;SDS011;11507;44.858;10.374;2023-05-07T08:15:38;27.05;;;21.25;;
22679;SDS011;11507;44.858;10.374;2023-05-07T08:18:05;29.63;;;21.50;;
22679;SDS011;11507;44.858;10.374;2023-05-07T08:20:32;27.83;;;22.25;;
22679;SDS011;11507;44.858;10.374;2023-05-07T08:22:59;28.33;;;20.70;;
22679;SDS011;11507;44.858;10.374;2023-05-07T08:25:26;26.92;;;20.02;;
22679;SDS011;11507;44.858;10.374;2023-05-07T08:27:52;24.25;;;19.23;;
22679;SDS011;11507;44.858;10.374;2023-05-07T08:30:18;23.90;;;19.67;;
22679;SDS011;11507;44.858;10.374;2023-05-07T08:32:44;23.85;;;18.65;;
22679;SDS011;11507;44.858;10.374;2023-05-07T08:35:10;24.75;;;19.98;;
22679;SDS011;11507;44.858;10.374;2023-05-07T08:37:38;25.77;;;18.90;;
22679;SDS011;11507;44.858;10.374;2023-05-07T08:40:04;24.95;;;19.75;;
22679;SDS011;11507;44.858;10.374;2023-05-07T08:42:35;26.85;;;20.50;;
22679;SDS011;11507;44.858;10.374;2023-05-07T08:45:07;23.27;;;18.95;;
22679;SDS011;11507;44.858;10.374;2023-05-07T08:47:42;22.45;;;18.35;;
22679;SDS011;11507;44.858;10.374;2023-05-07T08:50:14;24.25;;;19.42;;
22679;SDS011;11507;44.858;10.374;2023-05-07T08:52:41;28.25;;;20.25;;
22679;SDS011;11507;44.858;10.374;2023-05-07T08:55:09;23.35;;;18.73;;
22679;SDS011;11507;44.858;10.374;2023-05-07T08:57:35;21.77;;;17.83;;
22679;SDS011;11507;44.858;10.374;2023-05-07T09:00:03;21.30;;;17.88;;
22679;SDS011;11507;44.858;10.374;2023-05-07T09:02:37;20.20;;;16.83;;
22679;SDS011;11507;44.858;10.374;2023-05-07T09:05:04;20.70;;;16.27;;
22679;SDS011;11507;44.858;10.374;2023-05-07T09:07:32;22.58;;;16.58;;
22679;SDS011;11507;44.858;10.374;2023-05-07T09:09:58;21.60;;;16.40;;
22679;SDS011;11507;44.858;10.374;2023-05-07T09:12:29;18.60;;;15.43;;
22679;SDS011;11507;44.858;10.374;2023-05-07T09:14:55;21.85;;;16.50;;
22679;SDS011;11507;44.858;10.374;2023-05-07T09:17:21;18.80;;;14.38;;
22679;SDS011;11507;44.858;10.374;2023-05-07T09:19:47;18.20;;;14.20;;
22679;SDS011;11507;44.858;10.374;2023-05-07T09:22:14;19.83;;;15.57;;
22679;SDS011;11507;44.858;10.374;2023-05-07T09:24:51;19.13;;;14.88;;
22679;SDS011;11507;44.858;10.374;2023-05-07T09:27:21;19.77;;;15.13;;
22679;SDS011;11507;44.858;10.374;2023-05-07T09:29:47;20.85;;;16.08;;
22679;SDS011;11507;44.858;10.374;2023-05-07T09:32:15;19.88;;;15.77;;
22679;SDS011;11507;44.858;10.374;2023-05-07T09:34:41;16.13;;;13.10;;
22679;SDS011;11507;44.858;10.374;2023-05-07T09:37:08;18.05;;;14.10;;
22679;SDS011;11507;44.858;10.374;2023-05-07T09:39:41;18.88;;;14.73;;
22679;SDS011;11507;44.858;10.374;2023-05-07T09:42:08;18.42;;;13.75;;
22679;SDS011;11507;44.858;10.374;2023-05-07T09:44:36;14.25;;;12.65;;
22679;SDS011;11507;44.858;10.374;2023-05-07T09:47:06;20.48;;;15.02;;
22679;SDS011;11507;44.858;10.374;2023-05-07T09:49:39;18.63;;;16.38;;
22679;SDS011;11507;44.858;10.374;2023-05-07T09:52:10;15.93;;;13.95;;
22679;SDS011;11507;44.858;10.374;2023-05-07T09:54:43;19.00;;;14.70;;
22679;SDS011;11507;44.858;10.374;2023-05-07T09:57:15;17.52;;;12.98;;
22679;SDS011;11507;44.858;10.374;2023-05-07T09:59:44;11.27;;;10.07;;
22679;SDS011;11507;44.858;10.374;2023-05-07T10:02:15;11.60;;;10.07;;
22679;SDS011;11507;44.858;10.374;2023-05-07T10:04:50;14.80;;;12.18;;
22679;SDS011;11507;44.858;10.374;2023-05-07T10:07:20;14.70;;;10.90;;
22679;SDS011;11507;44.858;10.374;2023-05-07T10:09:50;14.52;;;11.95;;
22679;SDS011;11507;44.858;10.374;2023-05-07T10:12:28;20.00;;;13.32;;
22679;SDS011;11507;44.858;10.374;2023-05-07T10:14:55;14.60;;;12.07;;
22679;SDS011;11507;44.858;10.374;2023-05-07T10:17:23;13.48;;;11.30;;
22679;SDS011;11507;44.858;10.374;2023-05-07T10:19:51;16.20;;;14.02;;
22679;SDS011;11507;44.858;10.374;2023-05-07T10:22:19;18.75;;;13.50;;
22679;SDS011;11507;44.858;10.374;2023-05-07T10:24:47;16.63;;;12.38;;
22679;SDS011;11507;44.858;10.374;2023-05-07T10:27:17;18.10;;;13.30;;
22679;SDS011;11507;44.858;10.374;2023-05-07T10:30:12;15.52;;;13.70;;
22679;SDS011;11507;44.858;10.374;2023-05-07T10:33:10;15.73;;;12.80;;
22679;SDS011;11507;44.858;10.374;2023-05-07T10:35:42;16.58;;;12.73;;
22679;SDS011;11507;44.858;10.374;2023-05-07T10:38:14;14.95;;;11.48;;
22679;SDS011;11507;44.858;10.374;2023-05-07T10:40:43;13.20;;;11.55;;
22679;SDS011;11507;44.858;10.374;2023-05-07T10:43:09;12.32;;;10.38;;
22679;SDS011;11507;44.858;10.374;2023-05-07T10:45:43;12.25;;;10.32;;
22679;SDS011;11507;44.858;10.374;2023-05-07T10:48:29;12.88;;;11.50;;
22679;SDS011;11507;44.858;10.374;2023-05-07T10:51:20;14.73;;;11.10;;
22679;SDS011;11507;44.858;10.374;2023-05-07T10:54:34;13.93;;;12.43;;
22679;SDS011;11507;44.858;10.374;2023-05-07T10:56:53;14.30;;;12.02;;
22679;SDS011;11507;44.858;10.374;2023-05-07T10:59:30;13.43;;;11.63;;
22679;SDS011;11507;44.858;10.374;2023-05-07T11:02:04;13.50;;;11.05;;
22679;SDS011;11507;44.858;10.374;2023-05-07T11:04:45;15.15;;;12.63;;
22679;SDS011;11507;44.858;10.374;2023-05-07T11:07:35;14.57;;;13.07;;
22679;SDS011;11507;44.858;10.374;2023-05-07T11:10:06;13.75;;;12.30;;
22679;SDS011;11507;44.858;10.374;2023-05-07T11:13:04;16.13;;;12.45;;
22679;SDS011;11507;44.858;10.374;2023-05-07T11:15:40;13.20;;;11.33;;
22679;SDS011;11507;44.858;10.374;2023-05-07T11:18:23;14.63;;;12.23;;
22679;SDS011;11507;44.858;10.374;2023-05-07T11:26:31;12.50;;;10.68;;
22679;SDS011;11507;44.858;10.374;2023-05-07T11:29:13;12.23;;;10.75;;
22679;SDS011;11507;44.858;10.374;2023-05-07T11:31:47;11.90;;;10.70;;
22679;SDS011;11507;44.858;10.374;2023-05-07T11:34:15;11.27;;;10.10;;
22679;SDS011;11507;44.858;10.374;2023-05-07T11:36:45;13.95;;;10.90;;
22679;SDS011;11507;44.858;10.374;2023-05-07T11:39:23;13.45;;;11.27;;
22679;SDS011;11507;44.858;10.374;2023-05-07T11:41:51;14.82;;;12.50;;
22679;SDS011;11507;44.858;10.374;2023-05-07T11:44:17;11.65;;;10.27;;
22679;SDS011;11507;44.858;10.374;2023-05-07T11:46:43;12.32;;;11.00;;
22679;SDS011;11507;44.858;10.374;2023-05-07T11:49:10;11.52;;;9.82;;
22679;SDS011;11507;44.858;10.374;2023-05-07T11:51:36;11.52;;;9.18;;
22679;SDS011;11507;44.858;10.374;2023-05-07T11:54:05;11.38;;;8.63;;
22679;SDS011;11507;44.858;10.374;2023-05-07T11:56:34;11.25;;;8.90;;
22679;SDS011;11507;44.858;10.374;2023-05-07T11:59:00;11.07;;;9.90;;
22679;SDS011;11507;44.858;10.374;2023-05-07T12:01:26;9.55;;;8.55;;
22679;SDS011;11507;44.858;10.374;2023-05-07T12:03:53;10.75;;;8.38;;
22679;SDS011;11507;44.858;10.374;2023-05-07T12:06:19;10.50;;;8.70;;
22679;SDS011;11507;44.858;10.374;2023-05-07T12:08:45;10.35;;;8.27;;
22679;SDS011;11507;44.858;10.374;2023-05-07T12:11:15;10.15;;;8.32;;
22679;SDS011;11507;44.858;10.374;2023-05-07T12:16:13;10.50;;;8.13;;
22679;SDS011;11507;44.858;10.374;2023-05-07T12:18:40;15.82;;;12.60;;
22679;SDS011;11507;44.858;10.374;2023-05-07T12:21:06;11.98;;;8.00;;
22679;SDS011;11507;44.858;10.374;2023-05-07T12:23:36;12.57;;;9.68;;
22679;SDS011;11507;44.858;10.374;2023-05-07T12:26:04;10.93;;;9.23;;
22679;SDS011;11507;44.858;10.374;2023-05-07T12:28:31;12.35;;;8.32;;
22679;SDS011;11507;44.858;10.374;2023-05-07T12:31:02;9.15;;;7.07;;
22679;SDS011;11507;44.858;10.374;2023-05-07T12:33:28;8.82;;;6.93;;
22679;SDS011;11507;44.858;10.374;2023-05-07T12:35:56;7.88;;;6.00;;
22679;SDS011;11507;44.858;10.374;2023-05-07T12:38:22;10.82;;;7.50;;
22679;SDS011;11507;44.858;10.374;2023-05-07T12:40:49;8.85;;;7.43;;
22679;SDS011;11507;44.858;10.374;2023-05-07T12:43:20;11.98;;;8.20;;
22679;SDS011;11507;44.858;10.374;2023-05-07T12:45:48;7.70;;;6.90;;
22679;SDS011;11507;44.858;10.374;2023-05-07T12:48:15;9.48;;;7.88;;
22679;SDS011;11507;44.858;10.374;2023-05-07T12:50:41;9.48;;;8.48;;
22679;SDS011;11507;44.858;10.374;2023-05-07T12:53:08;9.30;;;6.88;;
22679;SDS011;11507;44.858;10.374;2023-05-07T12:58:08;7.50;;;6.13;;
22679;SDS011;11507;44.858;10.374;2023-05-07T13:00:39;10.60;;;8.40;;
22679;SDS011;11507;44.858;10.374;2023-05-07T13:05:36;9.55;;;7.15;;
22679;SDS011;11507;44.858;10.374;2023-05-07T13:08:03;10.32;;;7.55;;
22679;SDS011;11507;44.858;10.374;2023-05-07T13:10:29;9.45;;;7.60;;
22679;SDS011;11507;44.858;10.374;2023-05-07T13:12:55;8.77;;;6.80;;
22679;SDS011;11507;44.858;10.374;2023-05-07T13:15:21;7.55;;;6.43;;
22679;SDS011;11507;44.858;10.374;2023-05-07T13:17:47;11.05;;;6.25;;
22679;SDS011;11507;44.858;10.374;2023-05-07T13:20:13;8.77;;;6.20;;
22679;SDS011;11507;44.858;10.374;2023-05-07T13:22:39;7.65;;;6.80;;
22679;SDS011;11507;44.858;10.374;2023-05-07T13:25:05;7.70;;;6.90;;
22679;SDS011;11507;44.858;10.374;2023-05-07T13:27:31;7.63;;;6.40;;
22679;SDS011;11507;44.858;10.374;2023-05-07T13:30:00;9.25;;;6.57;;
22679;SDS011;11507;44.858;10.374;2023-05-07T13:32:26;8.25;;;6.88;;
22679;SDS011;11507;44.858;10.374;2023-05-07T13:34:52;9.60;;;7.40;;
22679;SDS011;11507;44.858;10.374;2023-05-07T13:37:18;9.65;;;7.35;;
22679;SDS011;11507;44.858;10.374;2023-05-07T13:39:44;10.90;;;8.38;;
22679;SDS011;11507;44.858;10.374;2023-05-07T13:42:10;10.13;;;9.10;;
22679;SDS011;11507;44.858;10.374;2023-05-07T13:44:36;11.43;;;9.65;;
22679;SDS011;11507;44.858;10.374;2023-05-07T13:47:03;9.50;;;8.00;;
22679;SDS011;11507;44.858;10.374;2023-05-07T13:49:29;7.75;;;6.63;;
22679;SDS011;11507;44.858;10.374;2023-05-07T13:52:00;7.65;;;5.90;;
22679;SDS011;11507;44.858;10.374;2023-05-07T13:54:26;8.77;;;7.93;;
22679;SDS011;11507;44.858;10.374;2023-05-07T13:56:52;9.90;;;7.78;;
22679;SDS011;11507;44.858;10.374;2023-05-07T13:59:18;8.70;;;6.68;;
22679;SDS011;11507;44.858;10.374;2023-05-07T14:01:48;8.82;;;6.82;;
22679;SDS011;11507;44.858;10.374;2023-05-07T14:04:14;9.18;;;7.07;;
22679;SDS011;11507;44.858;10.374;2023-05-07T14:06:41;7.63;;;6.43;;
22679;SDS011;11507;44.858;10.374;2023-05-07T14:09:07;7.47;;;6.50;;
22679;SDS011;11507;44.858;10.374;2023-05-07T14:11:33;6.93;;;5.75;;
22679;SDS011;11507;44.858;10.374;2023-05-07T14:13:58;9.98;;;6.20;;
22679;SDS011;11507;44.858;10.374;2023-05-07T14:16:24;8.32;;;6.40;;
22679;SDS011;11507;44.858;10.374;2023-05-07T14:18:50;6.68;;;5.28;;
22679;SDS011;11507;44.858;10.374;2023-05-07T14:21:17;9.57;;;5.95;;
22679;SDS011;11507;44.858;10.374;2023-05-07T14:23:45;7.13;;;5.57;;
22679;SDS011;11507;44.858;10.374;2023-05-07T14:26:11;9.70;;;5.50;;
22679;SDS011;11507;44.858;10.374;2023-05-07T14:28:37;7.95;;;5.72;;
22679;SDS011;11507;44.858;10.374;2023-05-07T14:31:04;6.88;;;4.97;;
22679;SDS011;11507;44.858;10.374;2023-05-07T14:33:31;6.65;;;5.95;;
22679;SDS011;11507;44.858;10.374;2023-05-07T14:35:57;8.38;;;5.93;;
22679;SDS011;11507;44.858;10.374;2023-05-07T14:38:23;7.38;;;5.90;;
22679;SDS011;11507;44.858;10.374;2023-05-07T14:40:53;6.53;;;4.93;;
22679;SDS011;11507;44.858;10.374;2023-05-07T14:43:23;6.22;;;5.38;;
22679;SDS011;11507;44.858;10.374;2023-05-07T14:45:49;5.82;;;4.88;;
22679;SDS011;11507;44.858;10.374;2023-05-07T14:48:15;7.80;;;4.97;;
22679;SDS011;11507;44.858;10.374;2023-05-07T14:50:42;6.28;;;4.90;;
22679;SDS011;11507;44.858;10.374;2023-05-07T14:53:08;6.53;;;4.85;;